Time;durP1;ratioP1;P1;durP2;ratioP2;P2;SDS_P1;SDS_P2;PMS_P1;PMS_P2;Temp;Humidity;BMP_temperature;BMP_pressure;BME280_temperature;BME280_humidity;BME280_pressure;Samples;Min_cycle;Max_cycle;Signal;HPM_P1;HPM_P2
2023/08/02 00:00:46;;;;;;;53.38;13.65;;;19.10;99.90;;;18.57;100.00;99876.53;4164879;28;20032;-80
2023/08/02 00:02:47;;;;;;;51.00;10.85;;;19.10;99.90;;;18.56;100.00;99880.22;4176565;28;20018;-80
2023/08/02 00:04:48;;;;;;;42.00;10.60;;;19.10;99.90;;;18.57;100.00;99865.03;4176763;28;20028;-80
2023/08/02 00:06:49;;;;;;;56.33;13.27;;;19.10;99.90;;;18.55;100.00;99867.91;4179663;28;20022;-80
2023/08/02 00:08:50;;;;;;;50.55;13.40;;;19.10;99.90;;;18.62;100.00;99857.13;4160894;28;20025;-80
2023/08/02 00:10:51;;;;;;;44.40;9.95;;;19.10;99.90;;;18.59;100.00;99860.25;4176275;28;20037;-80
2023/08/02 00:12:52;;;;;;;46.03;13.65;;;19.10;99.90;;;18.59;100.00;99863.75;4169109;28;20392;-80
2023/08/02 00:14:53;;;;;;;47.67;11.10;;;19.20;99.90;;;18.63;100.00;99848.06;4152477;28;20053;-80
2023/08/02 00:16:54;;;;;;;60.80;12.23;;;19.10;99.90;;;18.59;100.00;99855.72;4177475;28;20413;-80
2023/08/02 00:18:55;;;;;;;47.38;11.50;;;19.20;99.90;;;18.59;100.00;99849.56;4170729;28;20025;-80
2023/08/02 00:20:56;;;;;;;48.90;12.02;;;19.20;99.90;;;18.62;100.00;99851.78;4171468;28;20481;-80
2023/08/02 00:22:56;;;;;;;41.15;13.15;;;19.20;99.90;;;18.63;100.00;99854.25;4172159;28;20405;-80
2023/08/02 00:24:57;;;;;;;50.63;11.85;;;19.20;99.90;;;18.62;100.00;99833.91;4180872;28;20120;-80
2023/08/02 00:26:58;;;;;;;56.90;12.07;;;19.20;99.90;;;18.58;100.00;99827.38;4175169;28;20025;-80
2023/08/02 00:28:59;;;;;;;37.45;10.45;;;19.20;99.90;;;18.61;100.00;99845.63;4162199;28;20188;-80
2023/08/02 00:44:59;;;;;;;27.45;8.30;;;19.20;99.90;;;18.59;100.00;99804.16;4182387;28;20075;-79
2023/08/02 00:47:00;;;;;;;32.33;8.10;;;19.20;99.90;;;18.60;100.00;99790.59;4183839;28;20037;-80
2023/08/02 00:49:01;;;;;;;31.65;8.23;;;19.20;99.90;;;18.62;100.00;99783.16;4164519;28;20026;-80
2023/08/02 00:51:03;;;;;;;26.10;8.07;;;19.20;99.90;;;18.57;100.00;99780.38;4151304;28;20041;-80
2023/08/02 00:53:04;;;;;;;27.05;7.32;;;19.20;99.90;;;18.60;100.00;99779.91;4160450;28;20032;-80
2023/08/02 00:55:05;;;;;;;30.15;8.35;;;19.20;99.90;;;18.65;100.00;99787.22;4174668;28;20053;-80
2023/08/02 00:57:06;;;;;;;30.10;8.15;;;19.20;99.90;;;18.61;100.00;99767.34;4171804;28;20759;-80
2023/08/02 00:59:07;;;;;;;30.23;8.38;;;19.20;99.90;;;18.61;100.00;99778.03;4178949;28;20036;-80
2023/08/02 01:01:08;;;;;;;34.00;8.10;;;19.20;99.90;;;18.67;100.00;99775.25;4154878;28;20030;-80
2023/08/02 01:03:09;;;;;;;35.70;9.50;;;19.20;99.90;;;18.64;100.00;99758.84;4177920;28;20032;-80
2023/08/02 01:05:10;;;;;;;31.77;9.10;;;19.20;99.90;;;18.64;100.00;99769.53;4158613;28;20025;-80
2023/08/02 01:07:33;;;;;;;26.10;7.38;;;19.20;99.90;;;18.64;100.00;99757.00;4168657;28;20040;-80
2023/08/02 01:10:18;;;;;;;33.72;8.77;;;19.20;99.90;;;18.68;100.00;99763.53;4171775;28;20026;-79
2023/08/02 01:12:21;;;;;;;24.50;6.10;;;19.20;99.90;;;18.66;100.00;99746.91;4165035;28;20037;-78
2023/08/02 01:14:25;;;;;;;27.63;7.83;;;19.20;99.90;;;18.67;100.00;99753.06;4163107;28;20024;-79
2023/08/02 01:16:26;;;;;;;36.35;7.90;;;19.20;99.90;;;18.69;100.00;99751.81;4165122;28;20623;-80
2023/08/02 01:18:28;;;;;;;23.92;6.28;;;19.20;99.90;;;18.65;100.00;99737.28;4170179;28;20034;-79
2023/08/02 01:20:28;;;;;;;26.85;7.22;;;19.20;99.90;;;18.67;100.00;99745.03;4166395;28;20025;-79
2023/08/02 01:22:30;;;;;;;19.00;5.25;;;19.20;99.90;;;18.67;100.00;99734.34;4184779;28;20047;-80
2023/08/02 01:24:36;;;;;;;21.42;5.30;;;19.20;99.90;;;18.67;100.00;99721.81;4184502;28;20060;-79
2023/08/02 01:26:41;;;;;;;21.65;5.97;;;19.20;99.90;;;18.68;100.00;99715.44;4167896;28;20036;-80
2023/08/02 01:28:47;;;;;;;21.00;5.95;;;19.20;99.90;;;18.67;100.00;99711.13;4169414;28;20056;-79
2023/08/02 01:30:51;;;;;;;24.90;6.75;;;19.20;99.90;;;18.69;100.00;99717.06;4170140;28;20508;-80
2023/08/02 01:32:53;;;;;;;20.55;6.80;;;19.20;99.90;;;18.68;100.00;99691.38;4163738;28;20029;-79
2023/08/02 01:34:54;;;;;;;31.70;8.15;;;19.20;99.90;;;18.72;100.00;99697.09;4166893;28;20017;-80
2023/08/02 01:36:55;;;;;;;32.08;8.00;;;19.30;99.90;;;18.68;100.00;99691.38;4185457;28;20100;-80
2023/08/02 01:38:56;;;;;;;30.92;8.10;;;19.20;99.90;;;18.68;100.00;99699.41;4186057;28;20029;-80
2023/08/02 01:51:37;;;;;;;16.60;6.03;;;19.20;99.90;;;18.71;100.00;99680.25;4183907;28;20044;-79
2023/08/02 01:53:38;;;;;;;18.77;4.82;;;19.20;99.90;;;18.71;100.00;99676.75;4185943;28;20558;-80
2023/08/02 01:55:39;;;;;;;19.33;4.97;;;19.30;99.90;;;18.68;100.00;99669.19;4186207;28;20025;-80
2023/08/02 01:57:40;;;;;;;18.77;5.28;;;19.20;99.90;;;18.71;100.00;99672.22;4169791;28;20400;-80
2023/08/02 01:59:41;;;;;;;16.02;4.13;;;19.30;99.90;;;18.72;100.00;99654.34;4183550;28;20032;-80
2023/08/02 02:01:42;;;;;;;15.82;4.38;;;19.20;99.90;;;18.72;100.00;99657.81;4166120;28;20462;-80
2023/08/02 02:03:42;;;;;;;15.00;4.25;;;19.20;99.90;;;18.71;100.00;99658.06;4185174;28;20511;-80
2023/08/02 02:05:56;;;;;;;12.75;3.83;;;19.30;99.90;;;18.74;100.00;99658.41;4168144;28;20393;-80
2023/08/02 02:07:56;;;;;;;12.23;4.40;;;19.20;99.90;;;18.71;100.00;99661.53;4186455;28;20078;-79
2023/08/02 02:09:57;;;;;;;24.23;4.03;;;19.30;99.90;;;18.76;100.00;99656.28;4167544;28;20493;-79
2023/08/02 02:11:58;;;;;;;15.85;4.53;;;19.30;99.90;;;18.73;100.00;99650.59;4182297;28;20037;-80
2023/08/02 02:13:59;;;;;;;15.30;4.18;;;19.30;99.90;;;18.75;100.00;99649.34;4185894;28;20021;-80
2023/08/02 02:16:00;;;;;;;19.35;5.28;;;19.30;99.90;;;18.74;100.00;99644.22;4184671;28;20029;-80
2023/08/02 02:18:00;;;;;;;13.07;4.53;;;19.30;99.90;;;18.75;100.00;99646.66;4184043;28;20013;-80
2023/08/02 02:20:02;;;;;;;13.43;4.38;;;19.30;99.90;;;18.75;100.00;99638.66;4186296;28;20018;-80
2023/08/02 02:22:03;;;;;;;14.13;3.55;;;19.30;99.90;;;18.75;100.00;99638.66;4169264;28;20469;-80
2023/08/02 02:24:04;;;;;;;12.50;4.40;;;19.30;99.90;;;18.74;100.00;99631.69;4183490;28;20044;-80
2023/08/02 02:26:05;;;;;;;13.85;3.92;;;19.30;99.90;;;18.74;100.00;99626.34;4182661;28;20021;-80
2023/08/02 02:28:05;;;;;;;17.48;4.72;;;19.30;99.90;;;18.73;100.00;99622.03;4182735;28;20029;-80
2023/08/02 02:30:07;;;;;;;12.57;3.88;;;19.30;99.90;;;18.71;100.00;99626.00;4184983;28;20041;-80
2023/08/02 02:32:08;;;;;;;14.82;3.90;;;19.30;99.90;;;18.72;100.00;99617.75;4168147;28;20394;-80
2023/08/02 02:34:09;;;;;;;11.55;3.55;;;19.30;99.90;;;18.74;100.00;99615.66;4185792;28;20032;-80
2023/08/02 02:36:10;;;;;;;9.93;3.65;;;19.30;99.90;;;18.75;100.00;99616.47;4183294;28;20392;-80
2023/08/02 02:38:10;;;;;;;10.15;2.72;;;19.30;99.90;;;18.76;100.00;99618.88;4169213;28;20079;-79
2023/08/02 02:40:11;;;;;;;9.10;3.30;;;19.30;99.90;;;18.75;100.00;99617.28;4183784;28;20029;-80
2023/08/02 02:42:12;;;;;;;8.85;2.25;;;19.30;99.90;;;18.74;100.00;99612.16;4182627;28;20075;-80
2023/08/02 02:44:13;;;;;;;8.90;2.17;;;19.30;99.90;;;18.78;100.00;99606.13;4152745;28;20079;-80
2023/08/02 02:46:14;;;;;;;9.35;2.45;;;19.30;99.90;;;18.72;100.00;99596.38;4186326;28;20071;-79
2023/08/02 02:48:14;;;;;;;6.00;1.70;;;19.30;99.90;;;18.71;100.00;99591.25;4169195;28;20080;-80
2023/08/02 02:50:15;;;;;;;5.53;1.55;;;19.30;99.90;;;18.74;100.00;99583.59;4183034;28;20066;-80
2023/08/02 02:52:16;;;;;;;9.93;2.15;;;19.30;99.90;;;18.72;100.00;99576.88;4180493;28;20022;-80
2023/08/02 02:54:17;;;;;;;5.43;1.70;;;19.30;99.90;;;18.72;100.00;99583.03;4184625;28;20171;-80
2023/08/02 02:56:18;;;;;;;7.50;1.88;;;19.30;99.90;;;18.76;100.00;99592.16;4167121;28;20037;-80
2023/08/02 02:58:19;;;;;;;5.20;1.60;;;19.30;99.90;;;18.75;100.00;99579.88;4185488;28;20016;-79
2023/08/02 03:00:20;;;;;;;4.85;1.80;;;19.20;99.90;;;18.74;100.00;99575.56;4183494;28;20107;-80
2023/08/02 03:02:20;;;;;;;5.72;1.58;;;19.30;99.90;;;18.75;100.00;99571.06;4183492;28;20366;-80
2023/08/02 03:04:21;;;;;;;5.57;1.38;;;19.30;99.90;;;18.75;100.00;99563.03;4165915;28;20021;-80
2023/08/02 03:06:22;;;;;;;5.82;2.00;;;19.30;99.90;;;18.76;100.00;99567.31;4183838;28;20523;-81
2023/08/02 03:08:23;;;;;;;6.80;2.05;;;19.30;99.90;;;18.73;100.00;99557.91;4183352;28;20401;-80
2023/08/02 03:10:24;;;;;;;6.57;1.42;;;19.30;99.90;;;18.74;100.00;99559.53;4168038;28;20018;-80
2023/08/02 03:12:25;;;;;;;6.40;1.52;;;19.30;99.90;;;18.79;100.00;99556.97;4168478;28;20095;-80
2023/08/02 03:14:27;;;;;;;6.55;1.35;;;19.30;99.90;;;18.73;100.00;99539.22;4182725;28;20021;-81
2023/08/02 03:16:28;;;;;;;6.45;1.40;;;19.30;99.90;;;18.74;100.00;99550.72;4181576;28;20021;-80
2023/08/02 03:18:29;;;;;;;4.38;1.60;;;19.30;99.90;;;18.76;100.00;99535.25;4165822;28;20029;-80
2023/08/02 03:20:30;;;;;;;7.47;1.25;;;19.30;99.90;;;18.75;100.00;99552.34;4184629;28;20553;-81
2023/08/02 03:22:32;;;;;;;3.72;1.08;;;19.30;99.90;;;18.69;100.00;99530.06;4185226;28;20454;-80
2023/08/02 03:24:33;;;;;;;4.25;1.15;;;19.30;99.90;;;18.71;100.00;99538.66;4168029;28;20377;-80
2023/08/02 03:26:34;;;;;;;3.00;1.15;;;19.30;99.90;;;18.73;100.00;99538.41;4182097;28;20048;-79
2023/08/02 03:28:34;;;;;;;4.18;1.35;;;19.30;99.90;;;18.70;100.00;99538.88;4182883;28;20041;-79
2023/08/02 03:30:35;;;;;;;5.78;1.40;;;19.20;99.90;;;18.70;100.00;99530.84;4183650;28;20028;-80
2023/08/02 03:32:36;;;;;;;2.42;1.23;;;19.20;99.90;;;18.71;100.00;99535.16;4182166;28;20029;-80
2023/08/02 03:34:37;;;;;;;4.90;1.23;;;19.20;99.90;;;18.73;100.00;99530.38;4166405;28;20077;-80
2023/08/02 03:36:42;;;;;;;1.85;0.80;;;19.30;99.90;;;18.69;100.00;99521.25;4167709;28;20025;-80
2023/08/02 03:38:42;;;;;;;2.58;1.08;;;19.20;99.90;;;18.71;100.00;99513.78;4185727;28;20021;-80
2023/08/02 03:40:43;;;;;;;2.83;1.50;;;19.20;99.90;;;18.69;100.00;99527.41;4151597;28;20488;-80
2023/08/02 03:42:44;;;;;;;3.67;1.15;;;19.20;99.90;;;18.70;100.00;99526.31;4180273;28;20021;-80
2023/08/02 03:44:45;;;;;;;3.53;1.15;;;19.30;99.90;;;18.71;100.00;99517.28;4165743;28;20044;-80
2023/08/02 03:46:46;;;;;;;4.53;1.73;;;19.20;99.90;;;18.71;100.00;99506.59;4184105;28;20033;-80
2023/08/02 03:48:47;;;;;;;7.07;2.28;;;19.20;99.90;;;18.72;100.00;99510.06;4166044;28;20036;-80
2023/08/02 03:50:48;;;;;;;7.70;2.47;;;19.20;99.90;;;18.67;100.00;99516.13;4185813;28;20020;-80
2023/08/02 03:52:49;;;;;;;8.60;3.33;;;19.20;99.90;;;18.64;100.00;99511.25;4185516;28;20076;-80
2023/08/02 03:54:50;;;;;;;7.10;2.28;;;19.20;99.90;;;18.66;100.00;99517.19;4164858;28;20029;-80
2023/08/02 03:56:50;;;;;;;12.32;2.10;;;19.20;99.90;;;18.65;100.00;99518.22;4182814;28;20024;-80
2023/08/02 03:58:51;;;;;;;8.10;1.98;;;19.20;99.90;;;18.64;100.00;99505.09;4183284;28;20091;-80
2023/08/02 04:00:52;;;;;;;7.65;2.20;;;19.20;99.90;;;18.64;100.00;99511.25;4184873;28;20013;-80
2023/08/02 04:02:55;;;;;;;11.48;2.40;;;19.20;99.90;;;18.64;100.00;99505.91;4167833;28;20029;-80
2023/08/02 04:04:56;;;;;;;6.50;2.45;;;19.20;99.90;;;18.61;100.00;99508.25;4181559;28;20033;-80
2023/08/02 04:06:57;;;;;;;8.45;2.42;;;19.10;99.90;;;18.60;100.00;99496.78;4182981;28;20396;-80
2023/08/02 04:08:57;;;;;;;9.93;1.92;;;19.10;99.90;;;18.59;100.00;99503.16;4183605;28;20408;-80
2023/08/02 04:11:04;;;;;;;12.55;2.63;;;19.10;99.90;;;18.61;100.00;99498.38;4184069;28;20024;-80
2023/08/02 04:13:05;;;;;;;13.23;3.15;;;19.10;99.90;;;18.60;100.00;99506.63;4181564;28;20484;-80
2023/08/02 04:15:06;;;;;;;9.15;2.30;;;19.10;99.90;;;18.57;100.00;99515.94;4181751;28;20025;-80
2023/08/02 04:17:07;;;;;;;8.25;2.13;;;19.10;99.90;;;18.55;100.00;99510.00;4183635;28;20056;-80
2023/08/02 04:19:08;;;;;;;14.18;3.22;;;19.10;99.90;;;18.55;100.00;99518.03;4182549;28;20029;-81
2023/08/02 04:21:09;;;;;;;8.43;2.28;;;19.10;99.90;;;18.48;100.00;99520.00;4182932;28;20632;-80
2023/08/02 04:23:10;;;;;;;9.57;2.00;;;19.00;99.90;;;18.45;100.00;99509.78;4165246;28;20037;-80
2023/08/02 04:25:11;;;;;;;8.95;2.00;;;19.00;99.90;;;18.39;100.00;99517.94;4167069;28;20067;-80
2023/08/02 04:27:11;;;;;;;7.20;2.58;;;19.00;99.90;;;18.38;100.00;99508.28;4163741;28;20029;-80
2023/08/02 04:29:12;;;;;;;9.32;1.85;;;18.90;99.90;;;18.30;100.00;99504.16;4181726;28;20440;-81
2023/08/02 04:31:14;;;;;;;9.00;1.90;;;18.90;99.90;;;18.28;100.00;99511.56;4162536;28;20022;-81
2023/08/02 04:33:15;;;;;;;7.40;2.00;;;18.90;99.90;;;18.27;100.00;99525.97;4165800;28;20485;-80
2023/08/02 04:35:16;;;;;;;10.02;2.55;;;18.80;99.90;;;18.27;100.00;99525.16;4166488;28;20024;-80
2023/08/02 04:37:17;;;;;;;5.57;1.60;;;18.80;99.90;;;18.16;100.00;99526.78;4163232;28;20049;-81
2023/08/02 04:39:18;;;;;;;4.65;1.30;;;18.70;99.90;;;18.14;100.00;99536.88;4178177;28;20020;-81
2023/08/02 04:41:19;;;;;;;5.40;1.73;;;18.70;99.90;;;18.04;100.00;99524.13;4163246;28;20049;-81
2023/08/02 04:43:20;;;;;;;8.95;1.90;;;18.60;99.90;;;17.95;100.00;99519.41;4182823;28;20111;-81
2023/08/02 04:45:21;;;;;;;6.85;2.03;;;18.60;99.90;;;17.89;100.00;99520.34;4165464;28;20033;-80
2023/08/02 04:47:22;;;;;;;8.75;1.80;;;18.50;99.90;;;17.85;100.00;99513.84;4163838;28;20084;-81
2023/08/02 04:49:23;;;;;;;8.45;2.17;;;18.50;99.90;;;17.83;100.00;99522.06;4156920;28;20034;-81
2023/08/02 04:51:23;;;;;;;8.77;2.08;;;18.40;99.90;;;17.71;100.00;99525.78;4178052;28;20029;-81
2023/08/02 04:53:24;;;;;;;9.65;2.47;;;18.40;99.90;;;17.71;100.00;99521.28;4184378;28;20029;-81
2023/08/02 04:55:25;;;;;;;13.15;2.60;;;18.40;99.90;;;17.65;100.00;99519.53;4182505;28;20439;-81
2023/08/02 04:57:26;;;;;;;14.02;4.38;;;18.30;99.90;;;17.63;100.00;99519.75;4177984;28;20059;-81
2023/08/02 04:59:27;;;;;;;13.48;3.42;;;18.30;99.90;;;17.58;100.00;99519.63;4183024;28;20024;-81
2023/08/02 05:01:28;;;;;;;15.93;2.67;;;18.20;99.90;;;17.54;100.00;99509.63;4163814;28;20017;-80
2023/08/02 05:03:29;;;;;;;9.73;3.42;;;18.20;99.90;;;17.52;100.00;99525.84;4154234;28;20079;-81
2023/08/02 05:05:30;;;;;;;12.75;4.20;;;18.20;99.90;;;17.46;100.00;99510.78;4173797;28;20037;-80
2023/08/02 05:07:35;;;;;;;18.67;3.55;;;18.10;99.90;;;17.47;100.00;99538.25;4159209;28;20045;-80
2023/08/02 05:09:36;;;;;;;20.33;4.75;;;18.10;99.90;;;17.45;100.00;99522.47;4155339;28;20043;-80
2023/08/02 05:11:40;;;;;;;20.60;4.70;;;18.10;99.90;;;17.39;100.00;99528.72;4177390;28;20033;-80
2023/08/02 05:13:41;;;;;;;;;;;18.00;99.90;;;17.33;100.00;99520.81;4159824;28;20038;-80
2023/08/02 05:15:42;;;;;;;15.90;4.28;;;18.00;99.90;;;17.33;100.00;99524.31;4163512;28;19913;-80
2023/08/02 05:17:42;;;;;;;21.70;4.75;;;18.00;99.90;;;17.30;100.00;99522.09;4159275;28;20021;-81
2023/08/02 05:19:43;;;;;;;25.02;5.82;;;17.90;99.90;;;17.24;100.00;99519.53;4160204;28;20034;-81
2023/08/02 05:21:44;;;;;;;19.70;5.18;;;17.90;99.90;;;17.23;100.00;99520.59;4159675;28;20500;-80
2023/08/02 05:23:45;;;;;;;23.20;4.97;;;17.90;99.90;;;17.12;100.00;99504.34;4178959;28;20025;-80
2023/08/02 05:25:46;;;;;;;22.00;5.65;;;17.80;99.90;;;17.17;100.00;99505.50;4163160;28;20513;-80
2023/08/02 05:27:47;;;;;;;18.25;4.20;;;17.80;99.90;;;17.18;100.00;99513.28;4175955;28;20119;-80
2023/08/02 05:29:50;;;;;;;22.70;4.15;;;17.80;99.90;;;17.12;100.00;99503.53;4164312;28;20030;-80
2023/08/02 05:31:51;;;;;;;17.50;5.05;;;17.80;99.90;;;17.09;100.00;99501.31;4157937;28;20053;-80
2023/08/02 05:33:52;;;;;;;25.30;4.95;;;17.70;99.90;;;17.04;100.00;99511.84;4160367;28;20033;-79
2023/08/02 05:35:53;;;;;;;25.48;6.85;;;17.70;99.90;;;17.05;100.00;99510.81;4169788;28;20021;-79
2023/08/02 05:37:54;;;;;;;21.27;4.78;;;17.70;99.90;;;17.07;100.00;99522.06;4182292;28;20024;-79
2023/08/02 05:39:55;;;;;;;24.38;4.72;;;17.70;99.90;;;17.08;100.00;99531.69;4181151;28;20040;-79
2023/08/02 05:41:56;;;;;;;25.33;5.70;;;17.70;99.90;;;17.04;100.00;99541.16;4184009;28;20021;-79
2023/08/02 05:43:56;;;;;;;23.55;4.70;;;17.70;99.90;;;17.05;100.00;99535.59;4180434;28;20038;-79
2023/08/02 05:45:57;;;;;;;18.80;4.88;;;17.70;99.90;;;17.00;100.00;99529.31;4179248;28;20032;-80
2023/08/02 05:47:58;;;;;;;18.90;4.25;;;17.60;99.90;;;16.98;100.00;99528.75;4163641;28;20053;-79
2023/08/02 05:49:59;;;;;;;14.23;3.20;;;17.70;99.90;;;17.04;100.00;99535.81;4159845;28;20032;-79
2023/08/02 05:52:00;;;;;;;18.60;3.65;;;17.70;99.90;;;17.06;100.00;99531.06;4163682;28;20647;-80
2023/08/02 05:54:01;;;;;;;13.15;3.75;;;17.70;99.90;;;17.07;100.00;99541.53;4164010;28;20026;-79
2023/08/02 05:56:02;;;;;;;16.17;4.40;;;17.70;99.90;;;17.00;100.00;99531.97;4158811;28;20018;-79
2023/08/02 05:58:03;;;;;;;21.48;3.30;;;17.70;99.90;;;17.12;100.00;99536.31;4184886;28;20481;-79
2023/08/02 06:00:08;;;;;;;18.67;4.22;;;17.70;99.90;;;17.10;100.00;99516.28;4183046;28;20028;-79
2023/08/02 06:02:09;;;;;;;11.90;3.78;;;17.70;99.90;;;17.12;100.00;99516.84;4173145;28;20021;-79
2023/08/02 06:04:09;;;;;;;17.58;3.58;;;17.70;99.90;;;17.13;100.00;99527.28;4179760;28;20201;-79
2023/08/02 06:06:10;;;;;;;19.58;2.88;;;17.70;99.90;;;17.20;100.00;99523.72;4183088;28;20055;-79
2023/08/02 06:08:11;;;;;;;15.35;2.90;;;17.80;99.90;;;17.05;100.00;99510.81;4167315;28;20022;-79
2023/08/02 06:10:12;;;;;;;15.32;2.85;;;17.70;99.90;;;16.91;100.00;99518.19;4180864;28;20022;-79
2023/08/02 06:12:13;;;;;;;10.50;3.00;;;17.60;99.90;;;16.83;100.00;99517.69;4184634;28;20037;-79
2023/08/02 06:14:14;;;;;;;13.18;3.15;;;17.50;99.90;;;16.84;100.00;99508.66;4185109;28;20488;-78
2023/08/02 06:16:14;;;;;;;16.17;3.30;;;17.40;99.90;;;16.88;100.00;99518.63;4167092;28;20400;-78
2023/08/02 06:18:15;;;;;;;17.38;3.53;;;17.40;99.90;;;16.83;100.00;99525.69;4185786;28;20021;-78
2023/08/02 06:20:16;;;;;;;13.63;3.13;;;17.40;99.90;;;16.76;100.00;99540.91;4187069;28;20028;-78
2023/08/02 06:22:17;;;;;;;16.90;3.55;;;17.30;99.90;;;16.64;100.00;99519.56;4183413;28;20083;-78
2023/08/02 06:24:19;;;;;;;18.25;3.08;;;17.20;99.90;;;16.56;100.00;99514.56;4183701;28;20392;-79
2023/08/02 06:26:21;;;;;;;12.88;2.78;;;17.20;99.90;;;16.53;100.00;99521.13;4182457;28;20544;-79
2023/08/02 06:28:22;;;;;;;11.20;2.10;;;17.20;99.90;;;16.49;100.00;99511.13;4167536;28;20065;-78
2023/08/02 06:30:23;;;;;;;19.52;3.60;;;17.10;99.90;;;16.49;100.00;99501.28;4186122;28;20025;-79
2023/08/02 06:32:24;;;;;;;13.75;3.40;;;17.10;99.90;;;16.51;100.00;99511.75;4168866;28;20030;-79
2023/08/02 06:34:25;;;;;;;12.75;3.10;;;17.10;99.90;;;16.57;100.00;99505.53;4179971;28;20397;-80
2023/08/02 06:36:25;;;;;;;10.77;3.58;;;17.20;99.90;;;16.61;100.00;99500.59;4183865;28;20032;-86
2023/08/02 06:38:26;;;;;;;13.65;3.05;;;17.20;99.90;;;16.61;100.00;99500.59;4184684;28;20412;-85
2023/08/02 06:40:27;;;;;;;16.40;3.00;;;17.20;99.90;;;16.75;100.00;99502.84;4167273;28;20025;-85
2023/08/02 06:42:28;;;;;;;12.93;2.55;;;17.30;99.90;;;16.86;100.00;99495.94;4184797;28;20026;-84
2023/08/02 06:44:29;;;;;;;12.05;2.40;;;17.40;99.90;;;16.91;100.00;99493.38;4186611;28;20066;-85
2023/08/02 06:46:30;;;;;;;10.23;2.70;;;17.50;99.90;;;16.96;100.00;99512.19;4182879;28;20029;-85
2023/08/02 06:48:31;;;;;;;15.60;3.45;;;17.50;99.90;;;16.97;100.00;99511.94;4183381;28;20021;-84
2023/08/02 06:50:37;;;;;;;12.88;2.33;;;17.50;99.90;;;17.01;100.00;99491.00;4163511;28;20040;-84
2023/08/02 06:52:38;;;;;;;14.55;2.75;;;17.60;99.90;;;17.08;100.00;99494.38;4167145;28;20551;-85
2023/08/02 06:54:39;;;;;;;9.32;2.95;;;17.60;99.90;;;17.34;100.00;99511.81;4185139;28;20025;-83
2023/08/02 06:56:41;;;;;;;12.70;2.17;;;17.80;99.90;;;17.68;100.00;99497.72;4182592;28;20021;-79
2023/08/02 06:58:43;;;;;;;10.05;1.70;;;18.00;99.90;;;17.87;100.00;99504.56;4166184;28;20021;-80
2023/08/02 07:00:43;;;;;;;8.20;2.25;;;18.20;99.90;;;18.02;100.00;99498.72;4165646;28;20033;-80
2023/08/02 07:02:44;;;;;;;8.77;1.98;;;18.40;99.90;;;18.16;100.00;99500.91;4166806;28;20033;-80
2023/08/02 07:04:45;;;;;;;10.98;2.95;;;18.50;99.90;;;18.35;100.00;99503.41;4185117;28;20033;-79
2023/08/02 07:06:46;;;;;;;7.40;1.90;;;18.70;99.90;;;18.54;100.00;99500.38;4175554;28;20059;-80
2023/08/02 07:08:49;;;;;;;10.57;2.30;;;18.90;99.90;;;18.65;100.00;99504.88;4161956;28;20017;-80
2023/08/02 07:10:50;;;;;;;13.25;2.38;;;19.00;99.90;;;18.67;100.00;99513.44;4182902;28;20063;-79
2023/08/02 07:12:51;;;;;;;9.38;1.92;;;19.10;99.90;;;18.67;100.00;99508.09;4185473;28;20036;-79
2023/08/02 07:14:51;;;;;;;8.57;2.50;;;19.20;99.90;;;18.71;100.00;99509.25;4183039;28;20112;-79
2023/08/02 07:16:52;;;;;;;10.23;2.83;;;19.20;99.90;;;18.75;100.00;99507.75;4164314;28;20069;-79
2023/08/02 07:18:54;;;;;;;7.40;2.35;;;19.30;99.90;;;18.70;100.00;99507.63;4161491;28;20033;-79
2023/08/02 07:20:54;;;;;;;15.32;3.28;;;19.40;99.90;;;18.89;100.00;99510.91;4157222;28;20401;-80
2023/08/02 07:22:55;;;;;;;15.57;3.53;;;19.40;99.90;;;18.93;100.00;99503.25;4157349;28;20029;-79
2023/08/02 07:24:56;;;;;;;16.17;3.03;;;19.50;99.90;;;19.09;100.00;99515.81;4152775;28;20026;-79
2023/08/02 07:26:57;;;;;;;16.15;3.88;;;19.60;99.90;;;19.07;100.00;99517.91;4179097;28;20037;-79
2023/08/02 07:28:58;;;;;;;15.82;4.00;;;19.60;99.90;;;18.96;100.00;99510.78;4167954;28;20497;-79
2023/08/02 07:31:13;;;;;;;16.77;4.03;;;19.50;99.90;;;18.75;100.00;99529.13;4167303;28;20017;-79
2023/08/02 07:33:14;;;;;;;15.23;3.30;;;19.40;99.90;;;18.61;100.00;99534.94;4165115;28;20053;-79
2023/08/02 07:35:14;;;;;;;17.40;4.07;;;19.30;99.90;;;18.57;100.00;99523.94;4184343;28;20037;-79
2023/08/02 07:37:15;;;;;;;17.70;4.13;;;19.20;99.90;;;18.59;100.00;99521.84;4167027;28;20024;-79
2023/08/02 07:39:16;;;;;;;14.15;4.00;;;19.20;99.90;;;18.83;100.00;99537.78;4182791;28;20017;-80
2023/08/02 07:41:17;;;;;;;18.08;3.85;;;19.30;99.90;;;18.95;100.00;99535.88;4168088;28;20060;-80
2023/08/02 07:43:18;;;;;;;20.58;4.72;;;19.40;99.90;;;18.79;100.00;99538.25;4165524;28;20021;-79
2023/08/02 07:45:19;;;;;;;20.05;3.70;;;19.40;99.90;;;18.64;100.00;99540.63;4163413;28;20069;-79
2023/08/02 07:47:19;;;;;;;17.55;3.90;;;19.40;99.90;;;18.34;100.00;99531.19;4184248;28;20025;-79
2023/08/02 07:49:20;;;;;;;16.02;4.18;;;19.20;99.90;;;18.40;100.00;99525.69;4168140;28;20025;-79
2023/08/02 07:51:21;;;;;;;17.35;3.67;;;19.10;99.90;;;18.43;100.00;99519.09;4165832;28;20052;-79
2023/08/02 07:53:22;;;;;;;19.75;4.55;;;19.10;99.90;;;18.63;100.00;99535.53;4163548;28;20488;-80
2023/08/02 07:55:23;;;;;;;21.50;4.72;;;19.20;99.90;;;19.10;100.00;99520.94;4165125;28;20021;-79
2023/08/02 07:57:27;;;;;;;14.63;3.53;;;19.50;99.90;;;19.33;100.00;99507.41;4182380;28;20061;-79
2023/08/02 07:59:27;;;;;;;14.82;4.50;;;19.70;99.90;;;19.62;100.00;99518.06;4165437;28;20048;-80
2023/08/02 08:01:28;;;;;;;14.70;3.45;;;19.90;99.90;;;19.66;100.00;99516.50;4174146;28;20508;-80
2023/08/02 08:03:29;;;;;;;22.73;4.88;;;20.10;99.90;;;19.71;100.00;99517.38;4157196;28;20025;-80
2023/08/02 08:05:30;;;;;;;20.50;4.75;;;20.20;99.90;;;19.78;100.00;99527.94;4161346;28;20111;-79
2023/08/02 08:07:31;;;;;;;17.33;3.78;;;20.30;99.90;;;19.98;100.00;99524.75;4157890;28;20034;-80
2023/08/02 08:09:33;;;;;;;11.60;3.83;;;20.40;99.90;;;19.91;100.00;99514.22;4184791;28;20033;-80
2023/08/02 08:11:34;;;;;;;20.42;4.53;;;20.40;99.90;;;19.85;100.00;99529.41;4181236;28;20120;-80
2023/08/02 08:13:35;;;;;;;16.08;3.60;;;20.40;99.90;;;19.58;100.00;99516.94;4166245;28;20478;-80
2023/08/02 08:15:36;;;;;;;14.55;2.92;;;20.30;99.90;;;19.27;100.00;99512.91;4163837;28;20051;-79
2023/08/02 08:17:37;;;;;;;15.95;4.22;;;20.30;99.90;;;19.72;100.00;99516.34;4183070;28;20028;-80
2023/08/02 08:19:38;;;;;;;15.00;3.05;;;20.30;99.90;;;20.16;100.00;99514.53;4180698;28;20396;-80
2023/08/02 08:21:39;;;;;;;12.30;3.35;;;20.50;99.90;;;20.29;100.00;99513.41;4162732;28;20030;-80
2023/08/02 08:23:40;;;;;;;15.00;3.83;;;20.70;99.90;;;20.14;100.00;99515.84;4165051;28;20033;-80
2023/08/02 08:25:41;;;;;;;19.70;4.05;;;20.80;99.90;;;19.80;100.00;99499.88;4156976;28;20111;-80
2023/08/02 08:27:42;;;;;;;14.07;3.35;;;20.70;99.90;;;19.94;100.00;99520.94;4182552;28;20392;-80
2023/08/02 08:29:43;;;;;;;26.50;4.50;;;20.70;99.90;;;19.87;100.00;99527.28;4177770;28;20042;-80
2023/08/02 08:31:43;;;;;;;22.73;5.03;;;20.70;99.90;;;19.93;100.00;99522.81;4167050;28;20021;-80
2023/08/02 08:33:44;;;;;;;16.00;3.70;;;20.60;99.90;;;19.82;100.00;99518.38;4162987;28;20053;-80
2023/08/02 08:35:45;;;;;;;19.88;3.90;;;20.60;99.90;;;19.84;100.00;99540.34;4176750;28;20439;-80
2023/08/02 08:37:49;;;;;;;13.32;3.90;;;20.60;99.90;;;19.50;100.00;99523.50;4183075;28;20087;-80
2023/08/02 08:39:49;;;;;;;20.45;4.25;;;20.40;99.90;;;19.31;100.00;99519.41;4164233;28;20029;-80
2023/08/02 08:41:50;;;;;;;18.92;3.50;;;20.20;99.90;;;19.77;100.00;99540.50;4163741;28;20025;-80
2023/08/02 08:43:51;;;;;;;19.33;3.50;;;20.40;99.90;;;19.83;100.00;99495.91;4182017;28;20036;-80
2023/08/02 08:45:53;;;;;;;17.63;4.45;;;20.40;99.90;;;20.07;100.00;99508.00;4153000;28;20052;-80